Time;durP1;ratioP1;P1;durP2;ratioP2;P2;SDS_P1;SDS_P2;PMS_P1;PMS_P2;Temp;Humidity;BMP_temperature;BMP_pressure;BME280_temperature;BME280_humidity;BME280_pressure;Samples;Min_cycle;Max_cycle;Signal;HPM_P1;HPM_P2
2023/09/22 00:00:38;;;;;;;0.10;0.10;;;;;;;15.24;58.41;99145.75;7363003;19;20015;-61
2023/09/22 00:03:05;;;;;;;0.10;0.10;;;;;;;15.14;58.28;99134.19;7362429;19;19999;-61
2023/09/22 00:05:31;;;;;;;0.00;0.00;;;;;;;15.21;58.56;99156.50;7361894;19;20106;-61
2023/09/22 00:07:56;;;;;;;0.00;0.00;;;;;;;15.19;58.37;99153.13;7361245;19;20095;-61
2023/09/22 00:10:22;;;;;;;0.10;0.10;;;;;;;15.17;58.49;99160.28;7361860;19;20020;-61
2023/09/22 00:12:47;;;;;;;0.10;0.10;;;;;;;15.15;58.77;99151.63;7362425;19;20010;-61
2023/09/22 00:15:13;;;;;;;0.10;0.10;;;;;;;15.16;58.93;99157.75;7362359;19;20022;-62
2023/09/22 00:17:38;;;;;;;0.10;0.10;;;;;;;15.13;58.75;99155.31;7362934;19;20014;-61
2023/09/22 00:20:08;;;;;;;0.10;0.10;;;;;;;15.14;58.89;99162.25;7361068;19;20017;-62
2023/09/22 00:22:33;;;;;;;0.10;0.10;;;;;;;15.11;58.78;99159.84;7360621;19;20010;-61
2023/09/22 00:24:59;;;;;;;0.10;0.10;;;;;;;15.09;59.08;99165.19;7364647;19;20006;-61
2023/09/22 00:27:24;;;;;;;0.10;0.10;;;;;;;15.07;59.22;99169.72;7360054;19;20061;-61
2023/09/22 00:29:49;;;;;;;0.10;0.10;;;;;;;15.04;58.97;99165.50;7365142;19;20058;-61
2023/09/22 00:32:15;;;;;;;0.10;0.10;;;;;;;15.02;59.27;99166.53;7367190;19;20062;-61
2023/09/22 00:34:40;;;;;;;0.10;0.10;;;;;;;15.00;59.02;99168.41;7358578;19;20046;-61
2023/09/22 00:37:06;;;;;;;0.10;0.10;;;;;;;14.99;59.54;99166.72;7359793;19;20010;-61
2023/09/22 00:39:31;;;;;;;0.08;0.08;;;;;;;14.90;59.08;99168.19;7359352;19;20007;-61
2023/09/22 00:41:57;;;;;;;0.10;0.10;;;;;;;14.95;58.99;99178.38;7362889;19;20380;-61
2023/09/22 00:44:22;;;;;;;0.10;0.10;;;;;;;14.83;59.05;99160.78;7365544;19;20003;-61
2023/09/22 00:46:48;;;;;;;0.10;0.10;;;;;;;14.92;59.44;99178.59;7361738;19;20019;-61
2023/09/22 00:49:13;;;;;;;0.10;0.10;;;;;;;14.86;59.45;99169.34;7356885;19;20010;-62
2023/09/22 00:51:39;;;;;;;0.10;0.10;;;;;;;14.85;59.69;99164.16;7358391;19;20353;-61
2023/09/22 00:54:05;;;;;;;0.10;0.10;;;;;;;14.87;59.51;99178.06;7355890;19;20011;-61
2023/09/22 00:56:31;;;;;;;0.10;0.10;;;;;;;14.86;59.79;99181.63;7366402;19;20050;-60
2023/09/22 00:58:56;;;;;;;0.10;0.10;;;;;;;14.84;59.80;99175.63;7366033;19;21017;-60
2023/09/22 01:01:23;;;;;;;0.10;0.10;;;;;;;14.81;59.55;99170.56;7356999;19;20006;-61
2023/09/22 01:03:51;;;;;;;0.10;0.10;;;;;;;14.73;60.19;99166.63;7356698;19;20015;-61
2023/09/22 01:06:17;;;;;;;0.10;0.10;;;;;;;14.75;59.85;99169.16;7355827;19;20358;-60
2023/09/22 01:08:43;;;;;;;0.10;0.10;;;;;;;14.64;59.90;99150.63;7363152;19;20011;-61
2023/09/22 01:11:08;;;;;;;0.10;0.10;;;;;;;14.77;60.10;99188.31;7360247;19;20034;-62
2023/09/22 01:13:33;;;;;;;0.10;0.10;;;;;;;14.70;60.18;99182.63;7356881;19;20019;-60
2023/09/22 01:15:59;;;;;;;0.05;0.05;;;;;;;14.63;60.26;99176.06;7360693;19;20073;-61
2023/09/22 01:18:25;;;;;;;0.10;0.10;;;;;;;14.73;59.91;99192.91;7361406;19;20790;-60
2023/09/22 01:20:50;;;;;;;0.10;0.10;;;;;;;14.71;60.03;99202.69;7362395;19;21538;-61
2023/09/22 01:23:16;;;;;;;0.10;0.10;;;;;;;14.65;60.25;99195.22;7362120;19;20014;-60
2023/09/22 01:25:42;;;;;;;0.10;0.10;;;;;;;14.67;60.36;99201.19;7360154;19;20702;-61
2023/09/22 01:28:12;;;;;;;0.10;0.10;;;;;;;14.67;59.98;99203.81;7360029;19;20026;-61
2023/09/22 01:30:41;;;;;;;0.10;0.10;;;;;;;14.65;59.63;99205.72;7356990;19;20462;-61
2023/09/22 01:33:06;;;;;;;0.10;0.10;;;;;;;14.63;60.42;99206.75;7360999;19;20007;-60
2023/09/22 01:35:33;;;;;;;0.10;0.10;;;;;;;14.62;60.34;99208.53;7357041;19;20040;-60
2023/09/22 01:38:10;;;;;;;0.10;0.10;;;;;;;14.61;59.26;99214.72;7362480;19;20006;-61
2023/09/22 01:40:36;;;;;;;0.10;0.10;;;;;;;14.49;60.47;99200.56;7359628;19;20014;-60
2023/09/22 01:43:01;;;;;;;0.10;0.10;;;;;;;14.55;60.30;99212.50;7354749;19;20011;-61
2023/09/22 01:45:27;;;;;;;0.10;0.10;;;;;;;14.54;60.29;99213.41;7368338;19;20083;-61
2023/09/22 01:47:52;;;;;;;0.10;0.10;;;;;;;14.44;60.83;99207.00;7369055;19;20483;-60
2023/09/22 01:50:18;;;;;;;0.10;0.10;;;;;;;14.51;60.83;99224.13;7370257;19;20012;-60
2023/09/22 01:52:44;;;;;;;0.10;0.10;;;;;;;14.34;60.61;99195.38;7368548;19;20101;-61
2023/09/22 01:55:09;;;;;;;0.10;0.10;;;;;;;14.47;60.70;99217.34;7367256;19;20086;-61
2023/09/22 01:57:35;;;;;;;0.10;0.10;;;;;;;14.45;60.84;99224.47;7357125;19;20589;-62
2023/09/22 02:00:05;;;;;;;0.10;0.10;;;;;;;14.43;60.72;99221.94;7369357;19;20022;-62
2023/09/22 02:02:30;;;;;;;0.10;0.10;;;;;;;14.42;61.00;99229.91;7367625;19;20912;-60
2023/09/22 02:04:56;;;;;;;0.10;0.10;;;;;;;14.40;60.54;99229.16;7367589;19;20007;-62
2023/09/22 02:07:22;;;;;;;0.10;0.10;;;;;;;14.35;61.16;99224.19;7354461;19;20422;-61
2023/09/22 02:09:47;;;;;;;0.10;0.10;;;;;;;14.35;60.91;99231.25;7370126;19;20020;-61
2023/09/22 02:12:13;;;;;;;0.10;0.10;;;;;;;14.31;60.74;99227.94;7366104;19;20046;-64
2023/09/22 02:14:39;;;;;;;0.10;0.10;;;;;;;14.32;60.69;99228.78;7365006;19;20488;-60
2023/09/22 02:17:04;;;;;;;0.10;0.10;;;;;;;14.30;61.04;99241.19;7371525;19;20011;-61
2023/09/22 02:19:34;;;;;;;0.10;0.10;;;;;;;14.28;60.63;99239.47;7367053;19;19995;-60
2023/09/22 02:21:59;;;;;;;0.10;0.10;;;;;;;14.23;61.36;99231.03;7361944;19;20016;-62
2023/09/22 02:24:25;;;;;;;0.10;0.10;;;;;;;14.23;61.25;99236.28;7367211;19;20842;-61
2023/09/22 02:26:51;;;;;;;0.10;0.10;;;;;;;14.17;61.02;99236.66;7364923;19;20014;-61
2023/09/22 02:29:16;;;;;;;0.10;0.10;;;;;;;14.19;61.11;99234.81;7368952;19;20010;-61
2023/09/22 02:31:42;;;;;;;0.10;0.10;;;;;;;14.17;61.25;99236.66;7365940;19;20895;-60
2023/09/22 02:34:07;;;;;;;0.10;0.10;;;;;;;14.11;60.92;99236.19;7368106;19;20035;-61
2023/09/22 02:36:32;;;;;;;0.10;0.10;;;;;;;14.15;60.76;99254.31;7363475;19;20031;-61
2023/09/22 02:38:58;;;;;;;0.10;0.10;;;;;;;14.10;61.16;99237.97;7366739;19;20049;-62
2023/09/22 02:41:24;;;;;;;0.10;0.10;;;;;;;14.02;61.09;99234.97;7366348;19;20818;-62
2023/09/22 02:43:49;;;;;;;0.10;0.10;;;;;;;13.94;61.22;99234.59;7368062;19;20010;-61
2023/09/22 02:46:14;;;;;;;0.10;0.10;;;;;;;14.04;61.24;99251.47;7366825;19;20355;-62
2023/09/22 02:48:40;;;;;;;0.03;0.03;;;;;;;13.97;61.41;99244.91;7362488;19;20414;-61
2023/09/22 02:51:07;;;;;;;0.10;0.10;;;;;;;14.00;61.41;99253.44;7358934;19;20021;-60
2023/09/22 02:53:33;;;;;;;0.10;0.10;;;;;;;13.96;61.63;99251.09;7366140;19;20651;-61
2023/09/22 02:56:05;;;;;;;0.00;0.00;;;;;;;13.98;61.24;99260.53;7366202;19;20093;-61
2023/09/22 02:58:32;;;;;;;0.10;0.10;;;;;;;13.92;61.33;99250.41;7358359;19;20772;-61
2023/09/22 03:00:57;;;;;;;0.00;0.00;;;;;;;13.92;60.74;99257.44;7369471;19;20006;-60
2023/09/22 03:03:23;;;;;;;0.10;0.10;;;;;;;13.90;61.35;99254.09;7358108;19;20023;-60
2023/09/22 03:05:48;;;;;;;0.10;0.10;;;;;;;13.88;61.92;99255.94;7369971;19;20109;-60
2023/09/22 03:08:13;;;;;;;0.10;0.10;;;;;;;13.86;61.81;99260.44;7373145;19;20007;-61
2023/09/22 03:10:39;;;;;;;0.10;0.10;;;;;;;13.78;61.81;99250.38;7367758;19;20019;-61
2023/09/22 03:13:04;;;;;;;0.00;0.00;;;;;;;13.47;61.86;99225.09;7362314;19;20022;-61
2023/09/22 03:15:30;;;;;;;0.03;0.03;;;;;;;13.79;61.96;99266.97;7366397;19;20010;-62
2023/09/22 03:17:56;;;;;;;0.10;0.10;;;;;;;13.75;61.75;99272.41;7348744;19;20636;-61
2023/09/22 03:20:22;;;;;;;0.05;0.05;;;;;;;13.63;62.01;99252.13;7353436;19;20110;-61
2023/09/22 03:22:47;;;;;;;0.08;0.08;;;;;;;13.72;61.76;99274.38;7363679;19;20485;-61
2023/09/22 03:25:13;;;;;;;0.10;0.10;;;;;;;13.70;61.44;99278.88;7366905;19;20021;-61
2023/09/22 03:27:39;;;;;;;0.00;0.00;;;;;;;13.65;61.85;99271.25;7367428;19;20387;-62
2023/09/22 03:30:06;;;;;;;0.00;0.00;;;;;;;13.65;62.25;99273.88;7364761;19;20007;-61
2023/09/22 03:32:32;;;;;;;0.00;0.00;;;;;;;13.63;61.85;99275.72;7366971;19;20381;-62
2023/09/22 03:34:58;;;;;;;0.10;0.10;;;;;;;13.61;61.02;99277.63;7361455;19;20656;-61
2023/09/22 03:37:28;;;;;;;0.10;0.10;;;;;;;13.60;62.10;99278.56;7357194;19;20005;-61
2023/09/22 03:39:54;;;;;;;0.00;0.00;;;;;;;13.57;62.02;99283.13;7366358;19;20006;-61
2023/09/22 03:42:20;;;;;;;0.00;0.00;;;;;;;13.55;62.02;99290.25;7367200;19;20451;-61
2023/09/22 03:44:45;;;;;;;0.10;0.10;;;;;;;13.53;62.35;99286.84;7366565;19;20007;-61
2023/09/22 03:47:11;;;;;;;0.05;0.05;;;;;;;13.48;61.97;99287.09;7370588;19;20111;-61
2023/09/22 03:49:36;;;;;;;0.00;0.00;;;;;;;13.48;62.31;99289.72;7360815;19;20014;-61
2023/09/22 03:52:01;;;;;;;0.10;0.10;;;;;;;13.39;61.60;99290.28;7363648;19;20027;-61
2023/09/22 03:54:27;;;;;;;0.10;0.10;;;;;;;13.41;62.14;99288.41;7370876;19;20006;-60
2023/09/22 03:56:53;;;;;;;0.08;0.08;;;;;;;13.28;61.66;99285.66;7372001;19;20018;-61
2023/09/22 03:59:18;;;;;;;0.10;0.10;;;;;;;13.19;62.13;99284.34;7367916;19;20006;-61
2023/09/22 04:01:44;;;;;;;0.10;0.10;;;;;;;13.33;62.29;99311.56;7365507;19;20565;-61
2023/09/22 04:04:10;;;;;;;0.00;0.00;;;;;;;13.31;62.20;99313.44;7361255;19;20027;-61
2023/09/22 04:06:36;;;;;;;0.10;0.10;;;;;;;13.16;62.42;99294.97;7354958;19;20023;-60
2023/09/22 04:09:03;;;;;;;0.10;0.10;;;;;;;13.26;62.32;99310.25;7367306;19;20006;-62
2023/09/22 04:11:28;;;;;;;0.10;0.10;;;;;;;13.23;62.40;99321.75;7371442;19;20655;-61
2023/09/22 04:13:53;;;;;;;0.00;0.00;;;;;;;13.20;62.19;99309.63;7364161;19;20014;-61
2023/09/22 04:16:19;;;;;;;0.10;0.10;;;;;;;13.16;62.32;99310.72;7368323;19;20070;-60
2023/09/22 04:18:45;;;;;;;0.10;0.10;;;;;;;13.14;62.74;99312.59;7367622;19;20018;-61
2023/09/22 04:21:12;;;;;;;0.10;0.10;;;;;;;13.08;62.69;99312.94;7369230;19;20019;-60
2023/09/22 04:23:45;;;;;;;0.00;0.00;;;;;;;12.99;62.50;99310.81;7351979;19;20014;-60
2023/09/22 04:26:11;;;;;;;0.10;0.10;;;;;;;13.01;62.42;99314.19;7362676;19;20012;-61
2023/09/22 04:28:36;;;;;;;0.00;0.00;;;;;;;13.03;62.73;99320.19;7364296;19;20003;-61
2023/09/22 04:31:02;;;;;;;0.00;0.00;;;;;;;12.99;62.32;99323.91;7364020;19;20073;-61
2023/09/22 04:33:28;;;;;;;0.10;0.10;;;;;;;12.92;62.96;99322.53;7364918;19;20007;-61
2023/09/22 04:35:53;;;;;;;0.08;0.08;;;;;;;12.94;62.39;99328.56;7358881;19;20010;-62
2023/09/22 04:38:19;;;;;;;0.10;0.10;;;;;;;12.91;62.82;99331.34;7365271;19;20457;-60
2023/09/22 04:40:45;;;;;;;0.03;0.03;;;;;;;12.87;63.02;99335.03;7367111;19;20569;-60
2023/09/22 04:43:12;;;;;;;0.00;0.00;;;;;;;12.82;62.79;99331.81;7360203;19;20018;-61
2023/09/22 04:45:41;;;;;;;0.00;0.00;;;;;;;12.80;63.25;99344.16;7366343;19;20504;-61
2023/09/22 04:48:10;;;;;;;0.10;0.10;;;;;;;12.65;63.00;99320.47;7364470;19;20696;-61
2023/09/22 04:50:37;;;;;;;0.10;0.10;;;;;;;12.73;63.00;99343.66;7359681;19;20671;-61
2023/09/22 04:53:08;;;;;;;0.07;0.07;;;;;;;12.68;62.93;99346.53;7362671;19;20014;-61
2023/09/22 04:55:37;;;;;;;0.10;0.10;;;;;;;12.67;63.25;99344.84;7361518;19;20549;-61
2023/09/22 04:58:03;;;;;;;0.08;0.08;;;;;;;12.58;63.06;99345.31;7363038;19;20015;-61
2023/09/22 05:00:31;;;;;;;0.00;0.00;;;;;;;12.54;63.31;99351.63;7364489;19;20007;-60
2023/09/22 05:02:57;;;;;;;0.05;0.05;;;;;;;12.55;63.33;99361.19;7365664;19;20058;-61
2023/09/22 05:05:22;;;;;;;0.10;0.10;;;;;;;12.54;62.99;99375.19;7360780;19;20690;-61
2023/09/22 05:07:49;;;;;;;0.10;0.10;;;;;;;12.53;62.64;99381.38;7363060;19;20015;-61
2023/09/22 05:10:14;;;;;;;0.10;0.10;;;;;;;12.49;63.12;99377.22;7364892;19;20038;-61
2023/09/22 05:12:40;;;;;;;0.00;0.00;;;;;;;12.42;63.08;99376.69;7360898;19;20019;-61
2023/09/22 05:15:06;;;;;;;0.00;0.00;;;;;;;12.35;62.86;99371.81;7364713;19;20006;-61
2023/09/22 05:17:32;;;;;;;0.08;0.08;;;;;;;12.36;63.38;99376.13;7360530;19;20486;-61
2023/09/22 05:19:58;;;;;;;0.00;0.00;;;;;;;12.38;63.40;99395.25;7378531;19;20017;-60
2023/09/22 05:22:24;;;;;;;0.10;0.10;;;;;;;12.35;63.51;99398.00;7367755;19;20007;-62
2023/09/22 05:24:49;;;;;;;0.10;0.10;;;;;;;12.31;63.85;99392.06;7373582;19;20084;-60
2023/09/22 05:27:15;;;;;;;0.10;0.10;;;;;;;12.19;63.74;99377.84;7367587;19;20007;-61
2023/09/22 05:29:41;;;;;;;0.10;0.10;;;;;;;12.28;63.23;99401.88;7374828;19;20018;-61
2023/09/22 05:32:09;;;;;;;0.10;0.10;;;;;;;12.20;63.74;99392.63;7375084;19;20003;-60
2023/09/22 05:34:35;;;;;;;0.05;0.05;;;;;;;12.24;64.06;99413.41;7356936;19;20602;-61
2023/09/22 05:37:01;;;;;;;0.00;0.00;;;;;;;12.22;63.57;99415.28;7372452;19;20010;-60
2023/09/22 05:39:27;;;;;;;0.00;0.00;;;;;;;12.13;63.41;99406.94;7366810;19;20108;-61
2023/09/22 05:41:52;;;;;;;0.10;0.10;;;;;;;12.15;63.65;99415.56;7372017;19;20014;-61
2023/09/22 05:44:18;;;;;;;0.00;0.00;;;;;;;12.14;63.97;99413.03;7368240;19;20007;-61
2023/09/22 05:46:44;;;;;;;0.10;0.10;;;;;;;12.09;63.79;99410.63;7372176;19;20013;-61
2023/09/22 05:49:14;;;;;;;0.00;0.00;;;;;;;12.08;63.92;99416.78;7368165;19;20446;-61
2023/09/22 05:51:40;;;;;;;0.00;0.00;;;;;;;12.06;63.78;99426.47;7372434;19;20379;-60
2023/09/22 05:54:06;;;;;;;0.00;0.00;;;;;;;12.04;64.02;99420.47;7361737;19;20805;-61
2023/09/22 05:56:31;;;;;;;0.00;0.00;;;;;;;12.02;64.18;99427.56;7371766;19;20006;-60
2023/09/22 05:58:56;;;;;;;0.00;0.00;;;;;;;12.02;63.67;99432.81;7364387;19;20002;-61
2023/09/22 06:01:22;;;;;;;0.10;0.10;;;;;;;11.95;64.10;99423.53;7368344;19;20025;-62
2023/09/22 06:03:47;;;;;;;0.10;0.10;;;;;;;11.98;64.05;99439.09;7364650;19;20006;-61
2023/09/22 06:06:15;;;;;;;0.00;0.00;;;;;;;11.97;64.16;99440.03;7372719;19;20010;-61
2023/09/22 06:08:46;;;;;;;0.00;0.00;;;;;;;11.95;63.84;99445.31;7364552;19;20014;-60
2023/09/22 06:11:13;;;;;;;0.00;0.00;;;;;;;11.93;64.51;99447.16;7364628;19;20098;-61
2023/09/22 06:13:40;;;;;;;0.10;0.10;;;;;;;11.92;64.54;99455.94;7363250;19;20086;-61
2023/09/22 06:16:06;;;;;;;0.10;0.10;;;;;;;11.83;64.16;99439.84;7363076;19;20019;-61
2023/09/22 06:18:32;;;;;;;0.03;0.03;;;;;;;11.90;64.35;99459.53;7364876;19;20097;-61
2023/09/22 06:21:00;;;;;;;0.10;0.10;;;;;;;11.83;64.42;99455.53;7365551;19;20802;-60
2023/09/22 06:23:27;;;;;;;0.10;0.10;;;;;;;11.87;64.24;99464.94;7361219;19;20038;-61
2023/09/22 06:25:56;;;;;;;0.00;0.00;;;;;;;11.85;64.52;99474.59;7361662;19;20110;-60
2023/09/22 06:28:22;;;;;;;0.10;0.10;;;;;;;11.84;64.74;99472.91;7365537;19;20014;-61
2023/09/22 06:30:49;;;;;;;0.10;0.10;;;;;;;11.85;64.54;99474.59;7365470;19;20035;-61
2023/09/22 06:33:16;;;;;;;0.00;0.00;;;;;;;11.82;64.60;99474.78;7367694;19;20029;-61
2023/09/22 06:35:45;;;;;;;0.10;0.10;;;;;;;11.84;64.87;99480.75;7364983;19;20363;-60
2023/09/22 06:38:11;;;;;;;0.10;0.10;;;;;;;11.82;64.63;99485.22;7373204;19;20474;-62
2023/09/22 06:40:37;;;;;;;0.00;0.00;;;;;;;11.82;64.71;99496.53;7368934;19;20018;-60
2023/09/22 06:43:04;;;;;;;0.03;0.03;;;;;;;11.82;64.65;99506.16;7362416;19;20022;-61
2023/09/22 06:45:32;;;;;;;0.00;0.00;;;;;;;11.81;64.72;99504.41;7370346;19;20394;-61
2023/09/22 06:47:59;;;;;;;0.10;0.10;;;;;;;11.81;64.78;99509.63;7376211;19;20014;-60
2023/09/22 06:50:25;;;;;;;0.00;0.00;;;;;;;11.82;64.25;99514.00;7371331;19;20022;-62
2023/09/22 06:52:50;;;;;;;0.00;0.00;;;;;;;11.76;64.64;99509.00;7365320;19;20359;-61
2023/09/22 06:55:15;;;;;;;0.10;0.10;;;;;;;11.80;64.57;99524.47;7365940;19;20439;-61
2023/09/22 06:57:41;;;;;;;0.00;0.00;;;;;;;11.81;65.08;99527.94;7363908;19;20026;-61
2023/09/22 07:00:16;;;;;;;0.10;0.10;;;;;;;11.80;64.73;99528.88;7364820;19;20010;-61
2023/09/22 07:02:44;;;;;;;0.10;0.10;;;;;;;11.68;65.23;99514.59;7366065;19;20018;-61
2023/09/22 07:05:10;;;;;;;0.00;0.00;;;;;;;11.75;64.76;99530.84;7362551;19;20735;-62
2023/09/22 07:07:37;;;;;;;0.00;0.00;;;;;;;11.81;64.78;99533.16;7365557;19;20020;-60
2023/09/22 07:10:04;;;;;;;0.00;0.00;;;;;;;11.44;64.43;99488.66;7364973;19;20006;-60
2023/09/22 07:12:30;;;;;;;0.03;0.03;;;;;;;11.67;65.21;99528.59;7359373;19;20045;-61
2023/09/22 07:14:56;;;;;;;0.10;0.10;;;;;;;11.75;64.93;99546.53;7363859;19;20014;-61
2023/09/22 07:17:21;;;;;;;0.10;0.10;;;;;;;11.82;65.05;99548.00;7364796;19;20010;-60
2023/09/22 07:19:46;;;;;;;0.10;0.10;;;;;;;11.79;65.14;99553.34;7368001;19;20514;-61
2023/09/22 07:22:13;;;;;;;0.10;0.10;;;;;;;11.84;65.38;99564.47;7360016;19;20007;-62
2023/09/22 07:24:38;;;;;;;0.08;0.08;;;;;;;11.86;65.51;99560.00;7366249;19;20039;-61
2023/09/22 07:27:05;;;;;;;0.10;0.10;;;;;;;11.88;65.23;99568.63;7365174;19;20479;-61
2023/09/22 07:29:32;;;;;;;0.00;0.00;;;;;;;11.85;65.47;99572.22;7363564;19;20018;-61
2023/09/22 07:31:57;;;;;;;0.10;0.10;;;;;;;11.94;65.28;99573.59;7340116;19;20021;-60
2023/09/22 07:34:23;;;;;;;0.10;0.10;;;;;;;11.97;65.32;99578.69;7360594;19;20010;-62
2023/09/22 07:36:49;;;;;;;0.03;0.03;;;;;;;11.99;65.02;99568.97;7367591;19;20007;-61
2023/09/22 07:39:14;;;;;;;0.10;0.10;;;;;;;11.96;65.27;99576.97;7366003;19;20031;-61
2023/09/22 07:41:40;;;;;;;0.10;0.10;;;;;;;12.08;65.56;99589.50;7365224;19;20014;-61
2023/09/22 07:44:05;;;;;;;0.10;0.10;;;;;;;12.05;65.44;99576.53;7362178;19;20047;-61
2023/09/22 07:46:30;;;;;;;0.10;0.10;;;;;;;12.19;65.85;99595.06;7366641;19;20019;-61
2023/09/22 07:48:56;;;;;;;0.10;0.10;;;;;;;12.23;65.75;99603.63;7364522;19;20007;-61
2023/09/22 07:51:22;;;;;;;0.10;0.10;;;;;;;12.33;65.57;99606.66;7365411;19;20016;-61
2023/09/22 07:53:47;;;;;;;0.00;0.00;;;;;;;12.41;66.10;99615.00;7361075;19;20327;-61
2023/09/22 07:56:13;;;;;;;0.10;0.10;;;;;;;12.49;65.87;99620.72;7345605;19;20007;-60
2023/09/22 07:58:41;;;;;;;0.10;0.10;;;;;;;12.52;65.60;99617.97;7363339;19;20007;-62
2023/09/22 08:01:12;;;;;;;0.10;0.10;;;;;;;12.67;65.21;99622.47;7365370;19;20018;-61
2023/09/22 08:03:38;;;;;;;0.10;0.10;;;;;;;12.75;65.58;99634.34;7359102;19;20538;-60
2023/09/22 08:06:05;;;;;;;0.10;0.10;;;;;;;12.83;65.46;99633.03;7362537;19;20014;-61
2023/09/22 08:08:31;;;;;;;;;;;;;;;12.96;63.54;99641.13;7373566;19;20014;-62
2023/09/22 08:10:56;;;;;;;0.10;0.10;;;;;;;13.02;65.20;99638.19;7372843;19;19951;-61
2023/09/22 08:13:22;;;;;;;0.10;0.10;;;;;;;13.12;64.79;99649.06;7360210;19;20031;-62
2023/09/22 08:15:48;;;;;;;0.10;0.10;;;;;;;13.22;64.80;99656.44;7361997;19;20683;-62
2023/09/22 08:18:13;;;;;;;0.10;0.10;;;;;;;13.32;64.69;99655.97;7355355;19;20002;-61
2023/09/22 08:20:39;;;;;;;0.10;0.10;;;;;;;13.42;64.91;99657.19;7357183;19;20553;-60
2023/09/22 08:23:05;;;;;;;0.10;0.10;;;;;;;13.53;64.58;99659.28;7360114;19;20035;-61
2023/09/22 08:25:30;;;;;;;0.00;0.00;;;;;;;13.63;64.90;99661.34;7361196;19;20038;-61
2023/09/22 08:27:56;;;;;;;0.10;0.10;;;;;;;13.73;64.49;99659.94;7360822;19;20010;-62
2023/09/22 08:30:23;;;;;;;0.10;0.10;;;;;;;13.83;64.18;99667.31;7361997;19;20043;-61
2023/09/22 08:32:49;;;;;;;0.10;0.10;;;;;;;13.80;63.80;99664.88;7363071;19;19998;-61
2023/09/22 08:35:17;;;;;;;0.10;0.10;;;;;;;13.95;63.89;99679.81;7354394;19;20034;-62
2023/09/22 08:37:43;;;;;;;0.10;0.10;;;;;;;14.01;64.02;99679.50;7363188;19;20533;-60
2023/09/22 08:40:11;;;;;;;0.10;0.10;;;;;;;14.10;63.76;99681.63;7368377;19;20010;-60
2023/09/22 08:42:38;;;;;;;0.00;0.00;;;;;;;14.26;63.85;99693.00;7336415;19;20014;-61
2023/09/22 08:45:06;;;;;;;0.10;0.10;;;;;;;14.46;64.09;99688.44;7363079;19;20109;-61
2023/09/22 08:47:33;;;;;;;0.05;0.05;;;;;;;14.63;63.91;99692.78;7359121;19;21215;-62
2023/09/22 08:49:59;;;;;;;0.10;0.10;;;;;;;14.71;63.44;99673.06;7364062;19;20022;-62
2023/09/22 08:52:24;;;;;;;0.10;0.10;;;;;;;15.01;63.33;99693.28;7342342;19;20991;-61
2023/09/22 08:54:50;;;;;;;0.10;0.10;;;;;;;15.22;62.95;99699.09;7368993;19;20094;-61
2023/09/22 08:57:17;;;;;;;0.00;0.00;;;;;;;15.47;62.75;99703.78;7366155;19;20010;-61
2023/09/22 08:59:43;;;;;;;0.10;0.10;;;;;;;15.67;62.24;99700.00;7369892;19;20926;-62
2023/09/22 09:02:11;;;;;;;0.10;0.10;;;;;;;15.88;61.89;99705.75;7367924;19;20013;-61
2023/09/22 09:04:39;;;;;;;0.08;0.08;;;;;;;16.06;61.81;99708.09;7355212;19;20047;-61
2023/09/22 09:07:05;;;;;;;0.08;0.08;;;;;;;16.27;61.55;99716.50;7366107;19;20576;-61
2023/09/22 09:09:42;;;;;;;0.10;0.10;;;;;;;16.52;60.98;99714.94;7369442;19;20011;-61
2023/09/22 09:12:09;;;;;;;0.10;0.10;;;;;;;16.58;60.07;99725.94;7365146;19;20025;-61
2023/09/22 09:14:35;;;;;;;;;;;;;;;16.76;61.27;99726.59;7366411;19;20509;-61
2023/09/22 09:17:00;;;;;;;0.10;0.10;;;;;;;16.71;58.93;99730.44;7368125;19;19926;-60
2023/09/22 09:19:30;;;;;;;0.10;0.10;;;;;;;16.66;58.58;99728.09;7362318;19;20003;-62
2023/09/22 09:22:07;;;;;;;0.10;0.10;;;;;;;16.70;59.18;99740.13;7366441;19;20018;-61
2023/09/22 09:24:34;;;;;;;0.10;0.10;;;;;;;16.62;58.52;99742.41;7368045;19;20110;-62
2023/09/22 09:27:00;;;;;;;0.10;0.10;;;;;;;16.57;58.72;99733.94;7363333;19;20010;-61
2023/09/22 09:29:29;;;;;;;0.10;0.10;;;;;;;16.64;58.67;99745.81;7368020;19;20013;-62
2023/09/22 09:31:59;;;;;;;0.10;0.10;;;;;;;16.62;58.64;99742.41;7366890;19;20690;-61
2023/09/22 09:34:39;;;;;;;0.10;0.10;;;;;;;16.74;58.55;99746.94;7361190;19;20043;-62
2023/09/22 09:37:12;;;;;;;0.10;0.10;;;;;;;16.79;58.74;99749.28;7371237;19;20010;-62
2023/09/22 09:39:48;;;;;;;0.10;0.10;;;;;;;16.91;58.24;99750.28;7374950;19;20013;-61
2023/09/22 09:42:17;;;;;;;0.10;0.10;;;;;;;16.84;57.23;99726.97;7364998;19;21007;-61
2023/09/22 09:44:50;;;;;;;0.10;0.10;;;;;;;17.06;57.54;99752.78;7361219;19;20445;-61
2023/09/22 09:47:27;;;;;;;0.10;0.10;;;;;;;17.23;58.56;99748.19;7365380;19;20007;-61
2023/09/22 09:49:54;;;;;;;0.10;0.10;;;;;;;17.30;57.21;99754.78;7361910;19;20022;-62
2023/09/22 09:52:35;;;;;;;0.08;0.08;;;;;;;17.55;57.12;99749.56;7366229;19;20449;-61
2023/09/22 09:55:10;;;;;;;0.10;0.10;;;;;;;17.70;56.66;99758.28;7365776;19;20409;-61
2023/09/22 09:57:42;;;;;;;0.10;0.10;;;;;;;17.68;56.31;99748.75;7366341;19;20010;-61
2023/09/22 10:00:14;;;;;;;0.10;0.10;;;;;;;17.78;55.64;99771.81;7369990;19;20090;-62
2023/09/22 10:02:44;;;;;;;0.10;0.10;;;;;;;17.80;55.75;99769.94;7365633;19;20010;-61
2023/09/22 10:05:15;;;;;;;0.10;0.10;;;;;;;17.74;55.49;99778.28;7360770;19;20031;-61
2023/09/22 10:07:44;;;;;;;0.10;0.10;;;;;;;17.77;54.78;99775.41;7367128;19;20027;-61
2023/09/22 10:10:12;;;;;;;0.10;0.10;;;;;;;17.70;54.68;99776.75;7365973;19;20840;-62
2023/09/22 10:12:38;;;;;;;;;;;;;;;17.77;56.74;99778.06;7365989;19;20030;-62
2023/09/22 10:15:04;;;;;;;0.10;0.10;;;;;;;17.69;54.40;99776.84;7363178;19;19930;-61
2023/09/22 10:17:30;;;;;;;0.20;0.20;;;;;;;17.64;53.82;99782.44;7366595;19;20010;-61
2023/09/22 10:19:57;;;;;;;0.10;0.10;;;;;;;17.62;54.06;99793.09;7362274;19;20523;-61
2023/09/22 10:22:22;;;;;;;0.10;0.10;;;;;;;17.63;54.18;99786.00;7364387;19;20074;-61
2023/09/22 10:25:13;;;;;;;0.10;0.10;;;;;;;17.74;54.87;99791.47;7364260;19;20110;-61
2023/09/22 10:27:57;;;;;;;0.10;0.10;;;;;;;17.79;55.33;99784.09;7350281;19;20019;-60
2023/09/22 10:30:43;;;;;;;0.10;0.10;;;;;;;17.82;55.28;99789.16;7364661;19;20036;-62
2023/09/22 10:33:26;;;;;;;0.10;0.10;;;;;;;17.88;55.30;99796.66;7359133;19;20038;-60
2023/09/22 10:35:53;;;;;;;0.10;0.10;;;;;;;17.77;53.93;99770.13;7363972;19;20757;-62
2023/09/22 10:38:20;;;;;;;0.10;0.10;;;;;;;18.12;53.48;99795.97;7366849;19;20039;-61
2023/09/22 10:41:01;;;;;;;0.10;0.10;;;;;;;18.46;55.86;99798.94;7356571;19;20445;-62
2023/09/22 10:43:27;;;;;;;0.10;0.10;;;;;;;18.71;54.02;99804.22;7360805;19;20647;-61
2023/09/22 10:45:53;;;;;;;0.10;0.10;;;;;;;19.11;53.41;99806.63;7361636;19;20015;-62
2023/09/22 10:48:19;;;;;;;0.10;0.10;;;;;;;19.55;52.41;99802.53;7366511;19;20387;-62
2023/09/22 10:50:52;;;;;;;0.10;0.10;;;;;;;20.09;53.63;99799.38;7358823;19;20014;-62
2023/09/22 10:53:17;;;;;;;0.10;0.10;;;;;;;20.37;51.91;99790.13;7357797;19;20010;-61
2023/09/22 10:55:45;;;;;;;0.10;0.10;;;;;;;20.91;49.53;99795.56;7361174;19;20031;-62
2023/09/22 10:58:11;;;;;;;0.10;0.10;;;;;;;21.31;50.16;99792.38;7364614;19;20018;-61
2023/09/22 11:00:53;;;;;;;0.10;0.10;;;;;;;21.85;50.41;99804.72;7357927;19;20043;-61
2023/09/22 11:03:19;;;;;;;0.10;0.10;;;;;;;22.20;47.63;99803.56;7370081;19;20481;-62
2023/09/22 11:05:55;;;;;;;0.10;0.10;;;;;;;22.61;47.24;99812.44;7367301;19;20003;-61
2023/09/22 11:08:20;;;;;;;0.05;0.05;;;;;;;22.96;44.93;99799.63;7363187;19;20014;-62
2023/09/22 11:10:50;;;;;;;0.10;0.10;;;;;;;23.41;45.60;99799.09;7365236;19;20089;-62
2023/09/22 11:13:16;;;;;;;0.10;0.10;;;;;;;23.59;43.63;99804.59;7360739;19;20058;-62
2023/09/22 11:15:59;;;;;;;0.20;0.20;;;;;;;23.94;44.47;99819.22;7362801;19;20935;-61
2023/09/22 11:18:32;;;;;;;0.10;0.10;;;;;;;24.14;45.45;99809.34;7358204;19;20501;-62
2023/09/22 11:21:08;;;;;;;0.10;0.10;;;;;;;24.24;44.48;99815.50;7361576;19;20027;-62
2023/09/22 11:23:36;;;;;;;0.10;0.10;;;;;;;24.23;41.74;99816.47;7367374;19;20667;-61
2023/09/22 11:26:09;;;;;;;0.10;0.10;;;;;;;24.29;41.14;99816.75;7372575;19;20616;-61
2023/09/22 11:28:48;;;;;;;0.10;0.10;;;;;;;24.48;43.20;99823.03;7359518;19;20573;-61
2023/09/22 11:31:16;;;;;;;0.10;0.10;;;;;;;24.41;41.59;99825.47;7359534;19;20035;-61
2023/09/22 11:33:41;;;;;;;;;;;;;;;24.55;46.47;99825.00;7359663;19;20007;-61